createdAt,value
2023-02-03T00:05:00.627Z,101050.23
2023-02-03T00:10:06.406Z,101057.20
2023-02-03T00:15:11.950Z,101060.95
2023-02-03T00:20:16.227Z,101054.65
2023-02-03T00:25:21.946Z,101051.52
2023-02-03T00:30:25.711Z,101046.20
2023-02-03T00:35:30.281Z,101054.57
2023-02-03T00:40:35.653Z,101049.94
2023-02-03T00:45:40.553Z,101043.38
2023-02-03T00:50:47.718Z,101043.96
2023-02-03T00:55:53.004Z,101030.98
2023-02-03T01:00:58.204Z,101021.46
2023-02-03T01:06:20.456Z,101023.10
2023-02-03T01:11:27.573Z,101017.33
2023-02-03T01:16:36.315Z,101010.13
2023-02-03T01:21:42.042Z,101008.15
2023-02-03T01:26:46.804Z,100997.64
2023-02-03T01:31:51.656Z,100988.31
2023-02-03T01:36:55.744Z,100980.36
2023-02-03T01:42:00.088Z,100974.77
2023-02-03T01:47:07.250Z,100957.92
2023-02-03T01:52:12.297Z,100938.63
2023-02-03T01:57:27.225Z,100928.67
2023-02-03T02:02:32.547Z,100918.20
2023-02-03T02:07:37.697Z,100904.32
2023-02-03T02:12:42.890Z,100887.77
2023-02-03T02:18:17.051Z,100874.66
2023-02-03T02:23:54.228Z,100880.25
2023-02-03T02:29:18.744Z,100885.54
2023-02-03T02:35:03.906Z,100880.63
2023-02-03T02:41:25.666Z,100866.19
2023-02-03T02:46:55.026Z,100863.66
2023-02-03T02:53:30.301Z,100840.30
2023-02-03T02:59:25.750Z,100818.28
2023-02-03T03:05:40.758Z,100800.52
2023-02-03T03:12:06.037Z,100792.61
2023-02-03T03:18:16.668Z,100764.73
2023-02-03T03:24:39.941Z,100747.89
2023-02-03T03:31:08.628Z,100744.02
2023-02-03T03:37:34.799Z,100748.27
2023-02-03T03:50:29.814Z,100746.96
2023-02-03T03:56:54.297Z,100733.46
2023-02-03T04:02:52.091Z,100722.39
2023-02-03T04:08:45.436Z,100709.96
2023-02-03T04:15:10.898Z,100713.21
2023-02-03T04:21:12.662Z,100714.09
2023-02-03T04:27:29.296Z,100702.90
2023-02-03T04:33:50.875Z,100686.37
2023-02-03T04:39:30.489Z,100667.59
2023-02-03T04:44:54.456Z,100660.30
2023-02-03T04:50:01.702Z,100638.08
2023-02-03T04:56:10.319Z,100633.60
2023-02-03T05:02:37.449Z,100631.99
2023-02-03T05:08:48.537Z,100622.05
2023-02-03T05:15:14.444Z,100607.77
2023-02-03T05:21:35.368Z,100596.17
2023-02-03T05:27:54.824Z,100588.58
2023-02-03T05:34:12.705Z,100586.40
2023-02-03T05:40:28.675Z,100578.28
2023-02-03T05:46:48.297Z,100570.66
2023-02-03T05:52:57.937Z,100561.73
2023-02-03T05:59:13.694Z,100541.34
2023-02-03T06:05:15.362Z,100522.65
2023-02-03T06:11:33.674Z,100515.34
2023-02-03T06:17:23.650Z,100498.42
2023-02-03T06:23:21.185Z,100479.45
2023-02-03T06:29:47.097Z,100475.58
2023-02-03T06:35:31.859Z,100460.98
2023-02-03T06:41:57.425Z,100442.64
2023-02-03T06:48:22.970Z,100434.24
2023-02-03T06:54:12.736Z,100405.36
2023-02-03T07:00:37.923Z,100378.71
2023-02-03T07:06:44.052Z,100366.01
2023-02-03T07:13:09.876Z,100353.70
2023-02-03T07:19:28.589Z,100344.02
2023-02-03T07:25:56.104Z,100324.39
2023-02-03T07:32:20.792Z,100297.91
2023-02-03T07:38:36.575Z,100281.89
2023-02-03T07:45:02.198Z,100271.02
2023-02-03T07:51:08.241Z,100247.33
2023-02-03T07:57:34.320Z,100229.45
2023-02-03T08:04:00.129Z,100209.73
2023-02-03T08:10:26.324Z,100189.92
2023-02-03T08:16:51.319Z,100182.49
2023-02-03T08:22:57.633Z,100167.13
2023-02-03T08:28:57.835Z,100149.47
2023-02-03T08:34:45.482Z,100128.91
2023-02-03T08:40:06.185Z,100116.43
2023-02-03T08:45:12.454Z,100103.99
2023-02-03T08:50:26.675Z,100097.91
2023-02-03T08:55:35.009Z,100073.67
2023-02-03T09:00:39.845Z,100061.82
2023-02-03T09:06:48.415Z,100046.79
2023-02-03T09:13:14.209Z,100042.23
2023-02-03T09:19:26.795Z,100016.98
2023-02-03T09:25:51.648Z,100007.45
2023-02-03T09:32:18.367Z,100001.46
2023-02-03T09:38:43.413Z,99983.77
2023-02-03T09:45:10.884Z,99964.04
2023-02-03T09:51:41.964Z,99945.16
2023-02-03T09:58:08.789Z,99926.48
2023-02-03T10:04:40.907Z,99915.21
2023-02-03T10:11:11.355Z,99900.78
2023-02-03T10:18:30.353Z,99871.16
2023-02-03T10:24:30.497Z,99846.33
2023-02-03T10:30:55.478Z,99812.64
2023-02-03T10:37:24.902Z,99796.47
2023-02-03T10:44:09.194Z,99768.76
2023-02-03T10:50:39.117Z,99736.98
2023-02-03T10:57:10.631Z,99720.98
2023-02-03T11:02:36.409Z,99706.48
2023-02-03T11:08:22.129Z,99695.22
2023-02-03T11:14:17.529Z,99676.84
2023-02-03T11:20:32.840Z,99655.84
2023-02-03T11:26:59.084Z,99624.01
2023-02-03T11:33:24.112Z,99603.48
2023-02-03T11:40:08.620Z,99586.02
2023-02-03T11:53:56.949Z,99550.41
2023-02-03T12:00:24.251Z,99539.38
2023-02-03T12:07:05.692Z,99523.86
2023-02-03T12:20:27.491Z,99486.87
2023-02-03T12:32:37.511Z,99452.06
2023-02-03T12:56:06.319Z,99401.30
2023-02-03T13:01:21.430Z,99388.27
2023-02-03T13:06:46.578Z,99388.78
2023-02-03T13:11:54.913Z,99393.98
2023-02-03T13:17:04.343Z,99384.59
2023-02-03T13:22:13.474Z,99380.91
2023-02-03T13:28:01.926Z,99377.96
2023-02-03T13:33:08.500Z,99375.88
2023-02-03T13:38:58.365Z,99385.27
2023-02-03T13:44:01.174Z,99411.98
2023-02-03T13:49:05.607Z,99396.38
2023-02-03T13:54:16.137Z,99379.04
2023-02-03T13:59:38.507Z,99383.65
2023-02-03T14:04:48.080Z,99402.52
2023-02-03T14:10:33.644Z,99410.09
2023-02-03T14:15:39.900Z,99407.70
2023-02-03T14:20:49.591Z,99401.91
2023-02-03T14:25:56.712Z,99402.52
2023-02-03T14:31:18.507Z,99412.00
2023-02-03T14:36:53.500Z,99414.84
2023-02-03T14:42:10.723Z,99416.91
2023-02-03T14:47:28.471Z,99424.20
2023-02-03T14:53:01.171Z,99431.16
2023-02-03T14:58:18.201Z,99439.42
2023-02-03T15:03:25.762Z,99450.56
2023-02-03T15:08:53.397Z,99460.15
2023-02-03T15:14:19.616Z,99469.49
2023-02-03T15:19:28.529Z,99484.02
2023-02-03T15:24:37.490Z,99483.38
2023-02-03T15:29:41.372Z,99484.37
2023-02-03T15:34:51.853Z,99476.21
2023-02-03T15:40:21.228Z,99484.24
2023-02-03T15:45:52.379Z,99492.64
2023-02-03T15:51:06.919Z,99490.70
2023-02-03T15:56:20.793Z,99495.35
2023-02-03T16:01:29.266Z,99497.30
2023-02-03T16:06:48.558Z,99502.10
2023-02-03T16:12:17.681Z,99504.10
2023-02-03T16:17:45.527Z,99521.09
2023-02-03T16:23:20.901Z,99527.17
2023-02-03T16:28:43.641Z,99543.36
2023-02-03T16:34:12.236Z,99549.98
2023-02-03T16:39:35.854Z,99561.34
2023-02-03T16:45:03.535Z,99578.60
2023-02-03T16:50:38.634Z,99591.03
2023-02-03T16:55:48.792Z,99601.17
2023-02-03T17:00:57.289Z,99610.16
2023-02-03T17:06:10.573Z,99609.06
2023-02-03T17:11:22.516Z,99617.38
2023-02-03T17:16:28.672Z,99624.89
2023-02-03T17:21:37.174Z,99626.60
2023-02-03T17:26:46.092Z,99621.67
2023-02-03T17:31:51.349Z,99626.60
2023-02-03T17:36:59.455Z,99617.14
2023-02-03T17:58:10.522Z,99633.05
2023-02-03T18:03:18.014Z,99634.88
2023-02-03T18:08:25.330Z,99643.53
2023-02-03T18:13:41.493Z,99639.48
2023-02-03T18:18:49.230Z,99631.84
2023-02-03T18:24:00.844Z,99633.38
2023-02-03T18:29:07.775Z,99636.80
2023-02-03T18:34:13.832Z,99641.40
2023-02-03T18:39:18.666Z,99635.46
2023-02-03T18:44:26.770Z,99646.50
2023-02-03T18:49:34.182Z,99654.23
2023-02-03T18:54:47.517Z,99659.27
2023-02-03T19:00:04.871Z,99662.98
2023-02-03T19:05:13.089Z,99678.83
2023-02-03T19:10:23.347Z,99674.77
2023-02-03T19:15:29.954Z,99669.25
2023-02-03T19:20:37.894Z,99672.02
2023-02-03T19:25:46.808Z,99677.79
2023-02-03T19:31:02.840Z,99672.77
2023-02-03T19:36:14.559Z,99673.55
2023-02-03T19:41:22.908Z,99665.85
2023-02-03T19:46:34.050Z,99653.52
2023-02-03T19:51:49.608Z,99654.33
2023-02-03T19:56:58.835Z,99656.94
2023-02-03T20:02:13.678Z,99655.58
2023-02-03T20:07:19.094Z,99660.31
2023-02-03T20:12:24.715Z,99666.30
2023-02-03T20:17:34.328Z,99660.89
2023-02-03T20:22:41.519Z,99656.20
2023-02-03T20:27:49.171Z,99659.82
2023-02-03T20:32:58.397Z,99666.06
2023-02-03T20:38:07.226Z,99659.97
2023-02-03T20:43:27.403Z,99660.25
2023-02-03T20:48:35.360Z,99650.90
2023-02-03T20:53:45.449Z,99658.66
2023-02-03T20:58:53.329Z,99654.60
2023-02-03T21:04:16.839Z,99647.98
2023-02-03T21:09:26.284Z,99647.61
2023-02-03T21:14:43.780Z,99648.11
2023-02-03T21:19:52.938Z,99644.61
2023-02-03T21:25:00.940Z,99649.02
2023-02-03T21:30:34.046Z,99647.44
2023-02-03T21:35:50.581Z,99645.98
2023-02-03T21:40:57.070Z,99643.68
2023-02-03T21:46:06.344Z,99641.19
2023-02-03T21:51:47.453Z,99643.23
2023-02-03T21:56:55.026Z,99644.58
2023-02-03T22:01:59.921Z,99643.67
2023-02-03T22:07:16.011Z,99646.91
2023-02-03T22:12:20.655Z,99633.38
2023-02-03T22:17:24.409Z,99639.49
2023-02-03T22:22:31.338Z,99638.69
2023-02-03T22:27:35.237Z,99640.69
2023-02-03T22:32:44.702Z,99642.49
2023-02-03T22:37:48.527Z,99644.02
2023-02-03T22:42:53.688Z,99636.70
2023-02-03T22:48:07.412Z,99637.50
2023-02-03T22:53:20.752Z,99627.89
2023-02-03T22:58:36.203Z,99621.95
2023-02-03T23:03:50.157Z,99629.41
2023-02-03T23:09:00.822Z,99629.39
2023-02-03T23:14:05.527Z,99627.47
2023-02-03T23:19:12.575Z,99621.14
2023-02-03T23:24:23.439Z,99627.27
2023-02-03T23:29:27.696Z,99624.04
2023-02-03T23:34:50.997Z,99645.20
2023-02-03T23:39:54.976Z,99658.34
2023-02-03T23:45:00.400Z,99674.13
2023-02-03T23:50:04.509Z,99693.17
2023-02-03T23:55:14.006Z,99679.27
